TimeCST,TemperatureF,Dew PointF,Humidity,Sea Level PressureIn,VisibilityMPH,Wind Direction,Wind SpeedMPH,Gust SpeedMPH,PrecipitationIn,Events,Conditions,WindDirDegrees,DateUTC
12:53 AM,36.0,26.1,67,30.30,10.0,NE,6.9,-,N/A,,Clear,40,2013-01-20 06:53:00
1:53 AM,34.0,25.0,70,30.30,10.0,NNE,10.4,-,N/A,,Clear,30,2013-01-20 07:53:00
2:53 AM,33.1,26.1,75,30.31,10.0,NNE,11.5,-,N/A,,Clear,30,2013-01-20 08:53:00
3:53 AM,28.9,21.9,75,30.31,10.0,NNE,6.9,-,N/A,,Clear,20,2013-01-20 09:53:00
4:53 AM,26.1,19.0,75,30.30,10.0,NNE,10.4,-,N/A,,Clear,30,2013-01-20 10:53:00
5:53 AM,26.1,19.0,75,30.32,10.0,Calm,Calm,-,N/A,,Clear,0,2013-01-20 11:53:00
6:53 AM,24.1,18.0,77,30.31,10.0,NE,6.9,-,N/A,,Clear,50,2013-01-20 12:53:00
7:53 AM,21.9,16.0,78,30.33,10.0,NNE,3.5,-,N/A,,Clear,20,2013-01-20 13:53:00
8:53 AM,26.1,17.1,69,30.32,10.0,ENE,4.6,-,N/A,,Clear,70,2013-01-20 14:53:00
9:53 AM,30.0,19.0,64,30.32,10.0,ENE,10.4,-,N/A,,Clear,70,2013-01-20 15:53:00
10:53 AM,35.1,16.0,46,30.32,10.0,East,9.2,-,N/A,,Clear,80,2013-01-20 16:53:00
11:53 AM,37.9,12.9,36,30.31,10.0,East,8.1,-,N/A,,Clear,90,2013-01-20 17:53:00
12:53 PM,41.0,14.0,33,30.28,10.0,Variable,4.6,-,N/A,,Clear,0,2013-01-20 18:53:00
1:53 PM,43.0,12.9,30,30.26,10.0,NNE,9.2,-,N/A,,Clear,30,2013-01-20 19:53:00
2:53 PM,39.9,12.9,33,30.28,10.0,NNE,15.0,-,N/A,,Clear,30,2013-01-20 20:53:00
3:53 PM,37.0,12.0,36,30.30,10.0,NNE,13.8,-,N/A,,Clear,30,2013-01-20 21:53:00
4:53 PM,32.0,10.9,42,30.33,10.0,North,16.1,21.9,N/A,,Clear,10,2013-01-20 22:53:00
5:53 PM,28.9,10.0,45,30.35,10.0,NNE,13.8,-,N/A,,Clear,20,2013-01-20 23:53:00
6:53 PM,28.0,10.0,47,30.37,10.0,NNE,16.1,-,N/A,,Clear,20,2013-01-21 00:53:00
7:53 PM,26.1,8.1,47,30.41,10.0,NNE,13.8,-,N/A,,Clear,20,2013-01-21 01:53:00
8:53 PM,25.0,8.1,49,30.42,10.0,North,12.7,-,N/A,,Clear,10,2013-01-21 02:53:00
9:53 PM,24.1,8.1,51,30.43,10.0,North,9.2,-,N/A,,Clear,10,2013-01-21 03:53:00
10:53 PM,21.9,7.0,53,30.45,10.0,North,8.1,-,N/A,,Clear,10,2013-01-21 04:53:00
11:53 PM,19.9,7.0,57,30.45,10.0,North,6.9,-,N/A,,Clear,360,2013-01-21 05:53:00